Date,TemperatureHighF,TemperatureAvgF,TemperatureLowF,DewpointHighF,DewpointAvgF,DewpointLowF,HumidityHigh,HumidityAvg,HumidityLow,PressureMaxIn,PressureMinIn,WindSpeedMaxMPH,WindSpeedAvgMPH,GustSpeedMaxMPH,PrecipitationSumIn
2013-1-1,26,14,10,20,9,7,91,81,53,0.00,40.00,8,4,15,0.01
2013-1-4,29,19,11,7,5,1,79,56,38,0.00,40.00,8,5,12,0.00
2013-1-5,29,20,6,11,7,2,87,59,42,0.00,40.00,7,4,10,0.00
2013-1-6,40,31,14,8,4,0,58,33,21,0.00,40.00,11,8,17,0.00
2013-1-7,47,35,25,10,5,-2,44,30,16,0.00,40.00,9,6,13,0.00
2013-1-8,42,29,19,16,12,3,69,49,32,0.00,40.00,7,4,11,0.00
2013-1-9,50,36,21,16,11,6,65,38,26,0.00,40.00,8,5,14,0.00
2013-1-10,38,32,27,23,14,2,75,48,33,0.00,40.00,10,7,20,0.00
2013-1-11,32,17,5,24,11,-4,92,75,55,0.00,40.00,25,14,37,0.00
2013-1-12,22,9,-1,3,-2,-11,81,61,42,0.00,40.00,9,6,19,0.00
2013-1-13,15,6,-1,5,0,-7,81,74,64,0.00,40.00,9,6,13,0.01
2013-2-25,38,28,24,8,6,4,50,39,24,0.00,40.00,8,6,12,0.00
2013-2-26,31,23,17,11,6,-3,65,49,34,0.00,40.00,17,10,29,0.00
2013-2-27,37,24,11,8,1,-5,50,36,25,0.00,40.00,11,6,19,0.00
2013-2-28,43,29,18,9,5,-1,56,38,21,0.00,40.00,12,8,21,0.00
2013-3-1,49,36,20,23,16,6,60,45,34,0.00,40.00,15,6,24,0.00
2013-3-2,54,41,29,26,21,17,65,46,30,0.00,40.00,8,6,15,0.00
2013-3-3,47,42,31,25,21,18,64,44,36,0.00,40.00,11,6,30,0.00
2013-3-4,47,38,32,33,23,4,79,56,27,0.00,40.00,14,10,27,0.00
2013-3-5,49,37,25,16,11,2,55,34,23,0.00,40.00,11,6,17,0.00
2013-3-6,55,45,33,21,13,3,38,28,20,0.00,40.00,10,7,19,0.00
2013-3-7,56,49,35,19,14,10,44,26,17,0.00,40.00,9,6,18,0.00
2013-3-8,41,35,29,35,24,8,98,71,26,0.00,40.00,11,7,30,0.05
2013-3-9,31,25,19,29,23,17,98,90,79,0.00,40.00,15,8,24,0.29
2013-3-10,42,33,21,26,20,16,95,62,39,0.00,40.00,9,5,17,0.08
2013-3-11,49,36,26,25,21,17,75,55,32,0.00,40.00,12,7,21,0.01
2013-3-12,55,42,30,27,22,16,60,45,31,0.00,40.00,9,6,16,0.00
2013-3-13,60,46,34,29,23,16,62,43,24,0.00,40.00,9,6,15,0.00
2013-3-14,64,52,41,25,19,13,44,28,18,0.00,40.00,11,7,16,0.00
2013-3-15,67,55,41,23,18,13,37,24,14,0.00,40.00,12,8,24,0.00
2013-3-16,60,50,40,27,21,15,54,33,23,0.00,40.00,14,8,27,0.00
2013-3-17,54,42,34,31,22,6,75,48,20,0.00,40.00,19,8,32,0.00
2013-3-18,50,40,31,9,6,2,36,25,15,0.00,40.00,15,9,30,0.00
2013-3-19,55,43,35,15,9,2,32,24,20,0.00,40.00,12,8,21,0.00
2013-3-20,51,41,31,26,15,3,56,36,25,0.00,40.00,12,6,22,0.00
2013-3-21,54,44,37,28,20,3,67,42,17,0.00,40.00,20,10,33,0.00
2013-3-22,53,40,27,11,0,-12,31,19,10,0.00,40.00,18,10,34,0.00
2013-3-23,35,25,19,3,-4,-13,44,29,14,0.00,40.00,17,11,30,0.00
2013-3-24,38,26,14,0,-3,-8,44,29,17,0.00,40.00,16,9,30,0.00
2013-3-25,46,31,19,6,-1,-8,37,27,10,0.00,40.00,13,7,24,0.00
2013-3-26,54,40,27,14,8,3,41,26,18,0.00,40.00,12,6,24,0.00
2013-3-27,60,48,38,17,10,4,36,23,11,0.00,40.00,13,7,23,0.00
2013-3-28,60,55,48,13,11,8,21,17,15,0.00,40.00,12,8,22,0.00
2013-3-29,60,51,41,24,17,10,34,26,19,0.00,40.00,11,6,23,0.00
2013-3-30,62,54,38,25,18,-100,42,27,18,0.00,40.00,12,8,24,0.00
2013-3-31,65,54,42,25,20,12,43,27,14,0.00,40.00,12,7,25,0.00
2013-4-1,62,51,42,28,17,4,54,29,12,0.00,40.00,15,9,31,0.00
2013-4-2,54,43,34,26,16,5,64,36,19,0.00,40.00,11,7,26,0.00
2013-4-3,60,45,29,27,21,-1,76,45,10,0.00,40.00,14,7,23,0.00
2013-4-4,64,52,39,16,11,6,29,20,13,0.00,40.00,12,7,21,0.00
2013-4-5,64,54,43,20,16,12,30,23,15,0.00,40.00,14,8,24,0.00
2013-4-6,64,53,43,28,19,12,46,28,15,0.00,40.00,14,9,27,0.00
2013-4-7,63,52,41,23,16,11,44,25,15,0.00,40.00,14,8,32,0.00
2013-4-8,59,44,31,30,21,9,97,44,14,0.00,40.00,27,12,49,0.00
2013-4-9,38,32,26,35,31,26,99,97,90,0.00,40.00,14,8,21,0.51
2013-4-10,36,28,20,31,24,18,98,87,75,0.00,40.00,9,6,12,0.36
2013-4-11,51,36,22,35,26,15,90,67,52,0.00,40.00,11,6,26,0.03
2013-4-12,58,44,30,29,21,14,74,43,21,0.00,40.00,12,7,20,0.00
2013-4-13,60,50,36,27,19,14,53,31,18,0.00,40.00,23,11,36,0.00
2013-4-14,58,50,44,31,22,18,59,34,24,0.00,40.00,23,13,40,0.00
2013-4-15,62,50,40,27,22,13,51,34,17,0.00,40.00,21,13,35,0.00
2013-4-16,64,51,41,27,17,4,45,29,11,0.00,40.00,28,18,45,0.00
2013-4-17,46,37,23,27,17,8,76,46,23,0.00,40.00,22,12,34,0.01
2013-4-18,40,29,21,10,-2,-8,60,28,13,0.00,40.00,16,10,30,0.01
2013-4-19,53,38,21,11,3,-9,31,23,17,0.00,40.00,15,8,26,0.00
2013-4-20,56,44,34,23,18,9,48,35,26,0.00,40.00,15,9,27,0.00
2013-4-21,60,49,34,25,15,5,52,29,13,0.00,40.00,14,8,28,0.00
2013-4-22,65,56,43,19,14,10,32,20,13,0.00,40.00,20,10,36,0.00
2013-4-23,55,45,33,20,8,-8,41,22,14,0.00,40.00,20,11,34,0.00
2013-4-24,60,47,29,3,-2,-14,20,13,8,0.00,40.00,10,6,18,0.00
2013-4-25,65,52,42,31,15,-1,60,24,12,0.00,40.00,13,8,29,0.00
2013-4-26,60,49,39,34,26,16,71,43,20,0.00,40.00,15,7,29,0.00
2013-4-27,67,55,40,23,15,7,41,23,11,0.00,40.00,14,8,22,0.00
2013-4-28,71,60,45,19,13,8,23,16,11,0.00,40.00,14,9,25,0.00
2013-4-29,74,62,51,22,16,12,24,17,10,0.00,40.00,15,10,25,0.00
2013-4-30,74,68,51,19,10,3,20,11,8,0.00,40.00,21,15,37,0.00
2013-5-1,62,53,38,25,7,-17,34,17,6,0.00,40.00,20,13,35,0.00
2013-5-2,55,45,32,4,-2,-12,27,15,9,0.00,40.00,15,9,23,0.00
2013-5-3,60,48,31,10,4,-6,31,17,9,0.00,40.00,10,7,17,0.00
2013-5-4,68,57,39,13,5,-6,24,13,7,0.00,40.00,13,8,21,0.00
2013-5-5,63,54,48,26,15,4,36,21,14,0.00,40.00,15,10,28,0.00
2013-5-6,52,46,41,43,36,26,89,68,36,0.00,40.00,14,8,24,0.09
2013-5-7,61,49,37,41,30,14,98,56,17,0.00,40.00,13,7,25,0.12
2013-5-8,53,45,35,41,30,23,93,57,34,0.00,40.00,13,7,27,0.05
2013-5-9,55,43,38,36,30,24,77,62,36,0.00,40.00,13,6,22,0.07
2013-5-10,62,49,38,34,28,-100,76,51,24,0.00,40.00,13,7,25,0.07
2013-5-11,65,51,40,37,27,-100,76,46,18,0.00,40.00,17,7,30,0.03
2013-5-12,70,58,44,33,30,25,57,35,20,0.00,40.00,10,7,17,0.03
2013-5-13,79,64,49,33,28,22,41,28,14,0.00,40.00,11,8,18,0.00
2013-5-14,74,63,53,35,32,29,43,32,19,0.00,40.00,12,8,24,0.00
2013-5-15,77,64,52,43,30,5,55,32,9,0.00,40.00,15,8,22,0.00
2013-5-16,75,54,49,26,-1,-100,31,17,11,0.00,40.00,14,8,25,0.00
2013-5-17,74,62,51,24,6,-100,23,14,5,0.00,40.00,15,9,30,0.00
2013-5-18,67,57,50,28,22,16,40,26,16,0.00,40.00,14,9,27,0.00
2013-5-19,63,52,42,29,24,16,51,34,18,0.00,40.00,15,9,28,0.00
2013-5-20,58,49,41,32,27,19,61,43,25,0.00,40.00,15,6,29,0.00
2013-5-21,69,56,39,35,28,21,73,39,17,0.00,40.00,15,8,24,0.00
2013-5-22,76,64,47,28,21,15,44,21,10,0.00,40.00,13,8,33,0.00
2013-5-23,80,70,53,23,14,7,25,13,7,0.00,40.00,22,14,37,0.00
2013-5-24,76,66,52,22,15,6,23,14,8,0.00,40.00,17,8,30,0.00
2013-5-25,78,67,53,21,13,8,23,13,8,0.00,40.00,13,8,27,0.00
2013-5-26,75,66,53,20,10,4,18,12,8,0.00,40.00,14,8,25,0.00
2013-5-27,70,63,49,21,11,2,19,13,10,0.00,40.00,15,9,23,0.00
2013-5-28,71,62,48,24,16,7,30,17,12,0.00,40.00,11,8,24,0.00
2013-5-29,64,55,45,39,27,14,74,39,16,0.00,40.00,15,11,30,0.00
2013-5-30,70,59,46,29,22,14,46,26,12,0.00,40.00,18,11,33,0.00
2013-5-31,71,62,49,24,14,6,30,16,9,0.00,40.00,17,10,34,0.00
2013-6-1,77,65,47,16,9,3,22,12,7,0.00,40.00,14,8,22,0.00
2013-6-2,81,68,49,28,21,8,28,17,10,0.00,40.00,16,8,32,0.00
2013-6-3,78,69,53,38,27,19,41,22,13,0.00,40.00,17,8,30,0.00
2013-6-4,83,73,55,29,23,17,32,16,9,0.00,40.00,13,8,26,0.00
2013-6-5,82,70,57,28,21,13,27,16,10,0.00,40.00,15,8,25,0.00
2013-6-6,82,69,57,26,20,13,24,17,9,0.00,40.00,11,8,28,0.00
2013-6-7,80,68,53,39,29,20,38,25,13,0.00,40.00,13,8,22,0.00
2013-6-8,88,73,57,36,28,22,33,20,10,0.00,40.00,12,8,26,0.00
2013-6-9,90,77,64,33,25,18,24,15,8,0.00,40.00,16,9,25,0.00
2013-6-10,89,79,65,34,23,15,22,13,7,0.00,40.00,18,9,30,0.00
2013-6-11,86,74,63,26,17,13,18,12,7,0.00,40.00,16,9,28,0.00
2013-6-12,87,77,63,24,18,11,18,11,6,0.00,40.00,10,8,23,0.00
2013-6-13,87,78,63,33,25,17,25,14,10,0.00,40.00,13,8,33,0.00
2013-6-14,84,73,61,40,29,13,41,22,10,0.00,40.00,15,9,27,0.00
2013-6-15,85,70,56,40,30,12,38,24,11,0.00,40.00,20,8,36,0.00
2013-6-16,82,72,53,40,33,26,51,27,13,0.00,40.00,14,8,27,0.00
2013-6-17,85,72,58,36,28,15,35,22,12,0.00,40.00,13,8,26,0.00
2013-6-18,85,74,56,44,25,5,47,20,5,0.00,40.00,14,10,29,0.00
2013-6-19,84,75,56,17,7,-2,16,8,5,0.00,40.00,17,11,30,0.00
2013-6-20,80,72,58,19,13,1,18,11,7,0.00,40.00,13,9,25,0.00
2013-6-22,82,75,66,21,14,9,15,10,7,0.00,40.00,17,10,31,0.00
2013-6-23,83,75,56,25,13,6,17,10,6,0.00,40.00,16,8,26,0.00
2013-6-24,78,73,63,21,12,7,15,10,7,0.00,40.00,15,12,29,0.00
2013-6-25,82,75,63,29,25,11,21,16,13,0.00,40.00,12,9,25,0.00
2013-6-26,89,82,68,33,29,26,26,15,11,0.00,40.00,13,8,22,0.00
2013-6-27,96,85,66,35,29,19,26,14,7,0.00,40.00,14,7,23,0.00
2013-6-28,94,78,65,43,35,27,36,22,12,0.00,40.00,24,10,36,0.00
2013-6-29,90,72,62,43,41,38,44,33,18,0.00,40.00,13,8,27,0.00
2013-6-30,87,73,58,46,42,36,58,35,19,0.00,40.00,22,8,32,0.00
2013-7-1,86,71,55,46,42,40,62,39,24,0.00,40.00,13,8,24,0.03
2013-7-2,84,70,56,49,45,41,71,44,23,0.00,40.00,15,8,25,0.03
2013-7-3,86,70,55,50,46,39,77,46,20,0.00,40.00,18,9,36,0.00
2013-7-4,83,73,60,45,40,37,51,33,20,0.00,40.00,15,6,22,0.00
2013-7-5,86,72,63,51,45,38,56,39,22,0.00,40.00,15,8,28,0.00
2013-7-6,88,67,58,54,50,41,77,60,23,0.00,40.00,12,6,23,0.07
2013-7-7,88,73,59,54,47,39,77,44,21,0.00,40.00,11,6,19,0.07
2013-7-8,89,74,62,50,41,-100,60,34,15,0.00,40.00,14,8,26,0.00
2013-7-9,88,76,62,50,42,32,58,33,15,0.00,40.00,18,7,24,0.00
2013-7-10,92,72,61,59,42,-100,80,40,18,0.00,40.00,18,10,36,0.05
2013-7-11,87,70,60,57,51,44,82,54,27,0.00,40.00,10,7,30,0.15
2013-7-12,84,67,60,58,53,45,84,63,26,0.00,40.00,17,7,26,0.20
2013-7-13,85,71,59,57,49,42,77,50,25,0.00,40.00,15,7,23,0.05
2013-7-14,86,72,62,56,50,44,70,49,23,0.00,40.00,13,6,22,0.02
2013-7-15,79,64,57,61,55,47,100,74,35,0.00,40.00,13,8,20,0.09
2013-7-16,74,67,57,53,52,48,83,59,44,0.00,40.00,13,6,22,0.11
2013-7-17,81,66,56,57,50,42,94,61,28,0.00,40.00,13,6,22,0.08
2013-7-18,82,70,56,52,48,44,73,47,29,0.00,40.00,12,7,20,0.00
2013-7-19,82,69,58,52,49,45,68,50,30,0.00,40.00,14,8,26,0.00
2013-7-20,83,68,59,53,48,-100,77,53,28,0.00,40.00,10,6,17,0.00
2013-7-21,84,69,59,52,47,43,66,47,28,0.00,40.00,16,8,27,0.01
2013-7-22,86,71,58,52,45,36,61,41,21,0.00,40.00,12,5,35,0.04
2013-7-23,87,72,61,49,43,38,53,36,20,0.00,40.00,15,6,21,0.02
2013-7-24,86,72,58,55,44,30,90,41,14,0.00,40.00,26,8,41,0.00
2013-7-25,84,68,56,56,50,37,92,58,29,0.00,40.00,12,7,22,0.00
2013-7-26,87,70,58,60,49,37,84,50,25,0.00,40.00,15,9,28,0.30
2013-7-27,83,67,54,56,50,44,86,58,28,0.00,40.00,11,7,25,0.31
2013-7-28,71,62,56,63,56,46,100,83,59,0.00,40.00,10,6,22,0.72
2013-7-29,80,66,55,55,48,40,93,58,29,0.00,40.00,12,7,22,0.30
2013-7-30,86,74,57,48,41,35,63,34,18,0.00,40.00,11,7,19,0.00
2013-7-31,88,80,63,42,36,33,38,21,15,0.00,40.00,10,7,17,0.00
2013-8-1,74,66,58,57,48,33,94,58,22,0.00,40.00,16,8,21,0.05
2013-8-2,80,67,56,56,50,44,95,59,32,0.00,40.00,16,7,24,0.17
2013-8-3,82,67,54,58,52,45,100,64,32,0.00,40.00,16,7,24,0.28
2013-8-4,85,69,58,55,48,45,89,51,26,0.00,40.00,13,7,25,0.14
2013-8-5,83,67,55,56,51,44,100,62,28,0.00,40.00,13,8,23,0.09
2013-8-6,80,65,56,53,48,42,91,58,30,0.00,40.00,13,8,22,0.01
2013-8-7,69,57,54,55,51,48,99,82,50,0.00,40.00,10,5,16,1.71
2013-8-8,64,56,51,57,52,46,100,87,55,0.00,40.00,12,6,20,0.11
2013-8-9,76,62,51,50,44,39,78,53,29,0.00,40.00,12,7,19,0.02
2013-8-10,77,60,50,51,47,40,95,64,34,0.00,40.00,26,9,38,0.11
2013-8-11,79,63,49,49,44,39,91,54,27,0.00,40.00,9,6,17,0.02
2013-8-12,79,66,55,50,44,38,67,47,26,0.00,40.00,9,6,19,0.00
2013-8-13,81,67,56,49,37,-100,61,38,18,0.00,40.00,10,7,20,0.00
2013-8-14,81,70,54,46,34,27,45,29,16,0.00,40.00,14,7,24,0.00
2013-8-15,86,67,57,44,20,-100,39,21,13,0.00,40.00,10,7,20,0.00
2013-8-16,87,74,63,39,26,-100,28,19,11,0.00,40.00,9,6,22,0.00
2013-8-17,84,71,60,43,34,-100,43,28,17,0.00,40.00,15,8,26,0.00
2013-8-18,84,70,57,48,44,39,63,42,22,0.00,40.00,12,7,22,0.00
2013-8-19,86,67,60,48,39,-100,56,41,22,0.00,40.00,11,7,29,0.00
2013-8-20,86,69,59,49,44,-100,62,44,23,0.00,40.00,15,6,25,0.00
2013-8-21,85,68,58,54,46,40,86,48,24,0.00,40.00,18,9,30,0.13
2013-8-22,83,70,58,52,48,42,79,48,25,0.00,40.00,12,8,23,0.11
2013-8-23,82,70,58,51,42,23,74,42,12,0.00,40.00,19,10,33,0.14
2013-8-24,71,62,55,56,48,-100,97,63,43,0.00,40.00,13,7,31,0.36
2013-8-25,67,58,54,61,57,53,100,94,72,0.00,40.00,11,8,18,0.69
2013-8-26,79,66,55,59,54,47,100,71,36,0.00,40.00,9,6,15,0.17
2013-8-27,77,65,58,54,52,49,77,64,43,0.00,40.00,8,6,12,0.01
2013-8-28,83,76,69,56,48,41,52,37,26,0.00,40.00,7,6,16,0.00
2013-8-29,83,69,60,54,49,43,71,51,29,0.00,40.00,14,7,26,0.28
2013-8-30,84,71,60,54,49,44,71,48,25,0.00,40.00,16,6,22,0.28
2013-8-31,83,70,60,54,48,-100,69,49,31,0.00,40.00,16,7,24,0.31
2013-9-1,84,71,59,51,47,41,59,45,22,0.00,40.00,17,8,25,0.00
2013-9-2,82,69,58,56,50,42,90,56,28,0.00,40.00,11,6,19,0.08
2013-9-3,83,70,62,56,49,46,69,50,31,0.00,40.00,11,6,24,0.05
2013-9-4,87,72,60,54,48,40,77,46,21,0.00,40.00,10,7,21,0.05
2013-9-5,83,73,60,48,41,28,58,34,19,0.00,40.00,10,7,18,0.00
2013-9-6,84,75,59,40,34,28,42,24,17,0.00,40.00,10,6,17,0.00
2013-9-7,85,73,62,41,36,-100,42,28,18,0.00,40.00,13,8,19,0.00
2013-9-8,81,69,60,49,46,41,62,46,26,0.00,40.00,12,7,21,0.00
2013-9-9,76,62,54,57,51,40,96,71,35,0.00,40.00,9,6,17,0.16
2013-9-10,58,56,54,57,54,51,100,93,79,0.00,40.00,11,8,19,0.56
2013-9-11,71,60,54,61,52,42,100,77,49,0.00,40.00,8,6,12,0.59
2013-9-12,71,59,51,56,51,46,99,77,46,0.00,40.00,12,7,25,0.89
2013-9-13,66,57,51,56,52,48,100,85,66,0.00,40.00,13,8,19,0.69
2013-9-14,63,56,52,54,49,-100,92,80,63,0.00,40.00,14,8,22,0.12
2013-9-15,71,58,48,50,48,44,99,72,46,0.00,40.00,12,7,22,0.07
2013-9-16,74,61,52,53,48,42,86,65,35,0.00,40.00,11,7,17,0.00
2013-9-17,73,63,54,54,49,45,81,62,39,0.00,40.00,11,8,20,0.05
2013-9-18,60,56,51,54,52,48,92,85,76,0.00,40.00,12,5,19,0.44
2013-9-19,72,60,50,53,44,32,91,61,32,0.00,40.00,11,7,19,0.09
2013-9-20,75,67,52,42,36,29,56,34,22,0.00,40.00,8,6,15,0.00
2013-9-21,74,60,51,50,41,-100,71,52,26,0.00,40.00,12,7,19,0.00
2013-9-22,60,51,42,57,48,38,99,89,71,0.00,40.00,17,9,32,0.80
2013-9-23,64,50,39,40,36,33,89,62,34,0.00,40.00,10,7,17,0.02
2013-9-24,69,59,44,38,34,29,68,42,23,0.00,40.00,8,6,17,0.00
2013-9-25,72,65,51,41,31,21,47,28,22,0.00,40.00,18,14,34,0.00
2013-9-26,69,61,49,29,23,18,34,24,17,0.00,40.00,19,14,32,0.00
2013-9-27,58,46,39,44,33,19,98,65,33,0.00,40.00,16,9,29,0.20
2013-9-28,59,45,32,30,22,-100,66,43,29,0.00,40.00,8,5,13,0.01
2013-9-29,66,58,41,36,24,15,56,27,19,0.00,40.00,12,8,22,0.00
2013-9-30,72,65,56,34,26,21,32,22,17,0.00,40.00,12,8,19,0.00
2013-10-1,67,61,54,21,19,17,25,20,17,0.00,40.00,8,7,14,0.00
2013-10-2,69,63,54,29,23,18,33,22,15,0.00,40.00,9,6,16,0.00
2013-10-3,66,60,52,32,28,19,40,30,24,0.00,40.00,14,9,23,0.00
2013-10-4,53,40,29,26,17,8,72,42,19,0.00,40.00,16,12,29,0.00
2013-10-5,52,40,27,21,16,9,66,39,25,0.00,40.00,12,7,17,0.00
2013-10-6,62,52,33,23,20,16,57,30,19,0.00,40.00,9,6,16,0.00
2013-10-7,69,63,45,27,20,17,42,20,14,0.00,40.00,7,6,14,0.00
2013-10-8,67,61,47,26,24,19,32,25,20,0.00,40.00,12,8,24,0.00
2013-10-9,63,58,50,34,24,16,52,27,17,0.00,40.00,16,10,37,0.00
2013-10-10,51,39,32,38,32,29,100,81,43,0.00,40.00,20,10,37,0.44
2013-10-11,44,36,31,41,34,31,100,94,81,0.00,40.00,8,4,11,0.50
2013-10-12,55,42,32,35,29,-100,93,66,35,0.00,40.00,10,6,15,0.01
2013-10-13,60,51,42,41,34,25,64,52,36,0.00,40.00,18,9,27,0.04
2013-10-14,51,44,34,31,27,22,81,52,36,0.00,40.00,18,9,27,0.04
2013-10-15,54,42,32,29,23,19,70,47,25,0.00,40.00,11,7,21,0.00
2013-10-16,49,39,30,34,26,17,98,64,33,0.00,40.00,12,7,21,0.00
2013-10-17,52,41,28,24,18,13,70,43,22,0.00,40.00,13,7,22,0.00
2013-10-18,54,46,32,19,11,4,46,24,17,0.00,40.00,13,8,24,0.00
2013-10-19,55,45,33,19,13,-100,38,28,23,0.00,40.00,12,7,19,0.00
2013-10-20,60,52,37,21,17,14,44,25,18,0.00,40.00,13,10,25,0.00
2013-10-21,60,50,37,23,18,13,39,27,19,0.00,40.00,12,8,20,0.00
2013-10-22,61,52,35,21,18,12,43,26,19,0.00,40.00,8,6,14,0.00
2013-10-23,66,59,44,23,18,13,34,21,15,0.00,40.00,8,6,12,0.00
2013-10-24,66,56,44,26,22,18,38,26,17,0.00,40.00,9,7,19,0.00
2013-10-25,56,46,40,42,37,25,91,72,37,0.00,40.00,16,8,26,0.04
2013-10-26,60,47,39,42,34,-100,94,65,36,0.00,40.00,8,5,15,0.01
2013-10-27,58,49,39,36,30,24,75,51,31,0.00,40.00,9,6,16,0.00
2013-10-28,58,48,40,30,21,-100,66,40,18,0.00,40.00,22,13,30,0.00
2013-10-29,52,43,31,33,25,16,99,52,27,0.00,40.00,17,11,32,0.09
2013-10-30,40,32,27,35,30,24,99,93,75,0.00,40.00,10,5,19,0.18
2013-10-31,43,32,24,31,24,20,92,71,45,0.00,40.00,13,6,24,0.09
2013-11-1,53,40,29,28,24,21,80,55,33,0.00,40.00,11,6,17,0.00
2013-11-2,57,46,35,25,18,-100,65,36,22,0.00,40.00,11,7,15,0.00
2013-11-3,55,45,36,32,22,15,69,42,27,0.00,40.00,12,7,21,0.00
2013-11-4,51,44,34,33,25,21,96,49,32,0.00,40.00,11,7,20,0.01
2013-11-5,39,32,26,33,19,4,98,62,31,0.00,40.00,15,10,27,0.03
2013-11-8,56,51,39,20,16,12,36,25,21,0.00,40.00,12,9,21,0.00
2013-11-9,59,51,41,23,13,-100,32,23,18,0.00,40.00,11,7,18,0.00
2013-11-10,60,54,46,20,17,14,30,22,17,0.00,40.00,10,7,15,0.00
2013-11-11,62,54,40,19,18,16,40,24,17,0.00,40.00,8,6,13,0.00
2013-11-12,61,55,40,25,16,12,54,22,16,0.00,40.00,8,6,12,0.00
2013-11-13,53,48,40,27,24,22,60,40,30,0.00,40.00,7,5,11,0.00
2013-11-14,52,44,34,30,25,21,75,48,34,0.00,40.00,10,7,18,0.00
2013-11-15,46,39,32,36,28,19,98,67,43,0.00,40.00,13,8,23,0.17
2013-11-16,42,37,33,37,31,-100,99,82,60,0.00,40.00,18,9,28,0.20
2013-11-17,48,39,31,31,28,26,89,68,47,0.00,40.00,18,9,28,0.01
2013-11-18,53,41,31,29,25,23,80,55,32,0.00,40.00,8,5,11,0.00
2013-11-19,51,42,32,29,25,20,72,51,41,0.00,40.00,7,5,12,0.00
2013-11-20,49,40,35,35,30,23,99,72,49,0.00,40.00,9,5,17,0.17
2013-11-21,42,37,35,41,36,34,100,97,86,0.00,40.00,11,6,15,0.18
2013-11-22,35,33,32,35,33,32,100,100,99,0.00,40.00,15,11,25,0.56
2013-11-23,38,33,30,34,31,-100,100,97,81,0.00,40.00,15,9,23,0.28
2013-11-24,30,25,21,30,24,20,100,97,91,0.00,40.00,9,5,13,0.01
2013-11-25,30,25,22,28,24,21,98,96,94,0.00,40.00,6,3,9,0.12
2013-11-26,32,26,24,30,26,23,98,96,93,0.00,40.00,5,3,6,0.08
2013-11-27,42,30,23,33,26,21,95,84,67,0.00,40.00,7,4,9,0.25
2013-11-28,45,38,29,32,27,21,91,67,47,0.00,40.00,7,5,10,0.04
2013-11-29,46,37,29,27,23,18,69,57,46,0.00,40.00,8,5,11,0.00
2013-11-30,47,36,27,30,24,-100,89,66,51,0.00,40.00,9,5,22,0.00
2013-12-1,27,26,22,27,25,21,98,97,89,0.00,40.00,5,3,9,0.00
2013-12-2,27,25,24,27,24,23,98,97,96,0.00,40.00,5,3,7,0.00
2013-12-3,46,33,23,29,24,21,97,71,41,0.00,40.00,15,7,26,0.01
2013-12-4,37,27,12,27,19,5,97,74,51,0.00,40.00,23,12,39,0.01
2013-12-5,23,16,10,12,8,4,85,72,58,0.00,40.00,8,5,15,0.06
2013-12-6,24,16,11,13,6,0,89,66,42,0.00,40.00,10,5,16,0.02
2013-12-7,26,18,11,21,8,-100,94,68,50,0.00,40.00,14,8,20,0.01
2013-12-8,22,15,7,21,10,-3,94,80,61,0.00,40.00,15,10,29,0.05
2013-12-9,20,14,5,0,-4,-7,70,46,35,0.00,40.00,11,7,20,0.01
2013-12-10,22,19,3,3,2,-5,70,46,41,0.00,40.00,8,5,11,0.00
2013-12-11,37,31,23,12,9,5,55,39,35,0.00,40.00,8,4,9,0.00
2013-12-12,46,41,37,16,14,11,38,33,24,0.00,40.00,7,5,14,0.00
2013-12-13,38,28,18,20,15,10,80,59,42,0.00,40.00,11,6,17,0.00
2013-12-14,37,26,18,20,14,-100,87,62,41,0.00,40.00,8,5,13,0.00
2013-12-15,40,29,17,20,17,13,86,63,44,0.00,40.00,6,4,9,0.00
2013-12-16,40,34,21,22,20,16,81,56,45,0.00,40.00,7,4,10,0.00
2013-12-17,49,44,35,24,22,20,53,42,35,0.00,40.00,5,4,10,0.00
2013-12-18,49,40,31,22,20,18,64,45,29,0.00,40.00,8,6,11,0.00
2013-12-19,47,38,31,23,19,15,64,46,35,0.00,40.00,11,7,19,0.00
2013-12-20,35,31,28,30,25,21,91,79,60,0.00,40.00,9,5,13,0.00
2013-12-21,33,25,20,25,18,-100,97,78,58,0.00,40.00,10,5,19,0.01
2013-12-22,33,24,17,22,15,9,95,72,41,0.00,40.00,10,6,19,0.02
2013-12-23,34,25,15,16,13,9,78,61,45,0.00,40.00,8,5,13,0.01
2013-12-24,40,31,20,22,16,10,69,55,42,0.00,40.00,11,6,20,0.00
2013-12-25,41,32,20,16,13,6,73,46,35,0.00,40.00,6,4,11,0.00
2013-12-26,42,37,29,18,15,11,51,40,34,0.00,40.00,5,4,9,0.00
2013-12-27,46,40,26,20,16,11,56,37,31,0.00,40.00,7,4,10,0.00
2013-12-28,41,33,27,18,14,-100,65,49,38,0.00,40.00,9,5,13,0.00
2013-12-29,39,29,23,20,17,14,77,61,44,0.00,40.00,10,5,16,0.00
2013-12-30,39,28,18,18,14,7,80,58,39,0.00,40.00,6,4,11,0.00
2013-12-31,42,31,20,18,14,11,70,51,35,0.00,40.00,8,5,14,0.00
2014-1-1,48,34,25,20,12,-5,68,44,14,0.00,40.00,13,6,22,0.00
2014-1-2,45,35,24,12,11,8,56,37,26,0.00,40.00,7,5,11,0.00